sensor_id;sensor_type;location;lat;lon;timestamp;P1;durP1;ratioP1;P2;durP2;ratioP2
57303;SDS011;43150;50.986;18.208;2023-12-28T00:02:25;19.40;;;9.00;;
57303;SDS011;43150;50.986;18.208;2023-12-28T00:04:50;20.00;;;9.40;;
57303;SDS011;43150;50.986;18.208;2023-12-28T00:07:18;16.00;;;7.80;;
57303;SDS011;43150;50.986;18.208;2023-12-28T00:09:44;15.90;;;8.10;;
57303;SDS011;43150;50.986;18.208;2023-12-28T00:12:10;17.60;;;8.70;;
57303;SDS011;43150;50.986;18.208;2023-12-28T00:14:35;18.80;;;8.40;;
57303;SDS011;43150;50.986;18.208;2023-12-28T00:17:01;14.20;;;7.10;;
57303;SDS011;43150;50.986;18.208;2023-12-28T00:19:26;19.90;;;8.10;;
57303;SDS011;43150;50.986;18.208;2023-12-28T00:21:52;16.90;;;9.20;;
57303;SDS011;43150;50.986;18.208;2023-12-28T00:24:19;16.60;;;8.20;;
57303;SDS011;43150;50.986;18.208;2023-12-28T00:26:45;17.40;;;8.40;;
57303;SDS011;43150;50.986;18.208;2023-12-28T00:29:10;18.50;;;8.60;;
57303;SDS011;43150;50.986;18.208;2023-12-28T00:31:36;18.50;;;8.90;;
57303;SDS011;43150;50.986;18.208;2023-12-28T00:34:02;18.10;;;7.40;;
57303;SDS011;43150;50.986;18.208;2023-12-28T00:36:27;17.90;;;8.00;;
57303;SDS011;43150;50.986;18.208;2023-12-28T00:38:53;15.70;;;6.70;;
57303;SDS011;43150;50.986;18.208;2023-12-28T00:41:18;14.80;;;8.80;;
57303;SDS011;43150;50.986;18.208;2023-12-28T00:43:44;17.10;;;8.40;;
57303;SDS011;43150;50.986;18.208;2023-12-28T00:46:09;14.10;;;6.70;;
57303;SDS011;43150;50.986;18.208;2023-12-28T00:48:35;17.10;;;8.50;;
57303;SDS011;43150;50.986;18.208;2023-12-28T00:51:00;18.80;;;9.00;;
57303;SDS011;43150;50.986;18.208;2023-12-28T00:53:27;14.20;;;7.40;;
57303;SDS011;43150;50.986;18.208;2023-12-28T00:55:52;14.70;;;7.90;;
57303;SDS011;43150;50.986;18.208;2023-12-28T00:58:18;17.50;;;8.10;;
57303;SDS011;43150;50.986;18.208;2023-12-28T01:00:44;16.60;;;6.90;;
57303;SDS011;43150;50.986;18.208;2023-12-28T01:03:09;16.20;;;8.00;;
57303;SDS011;43150;50.986;18.208;2023-12-28T01:05:35;13.80;;;7.60;;
57303;SDS011;43150;50.986;18.208;2023-12-28T01:08:01;15.50;;;7.80;;
57303;SDS011;43150;50.986;18.208;2023-12-28T01:10:26;16.70;;;7.80;;
57303;SDS011;43150;50.986;18.208;2023-12-28T01:12:52;12.90;;;7.50;;
57303;SDS011;43150;50.986;18.208;2023-12-28T01:15:17;14.40;;;6.00;;
57303;SDS011;43150;50.986;18.208;2023-12-28T01:17:43;14.10;;;6.60;;
57303;SDS011;43150;50.986;18.208;2023-12-28T01:20:08;15.90;;;7.10;;
57303;SDS011;43150;50.986;18.208;2023-12-28T01:22:34;15.70;;;7.40;;
57303;SDS011;43150;50.986;18.208;2023-12-28T01:24:59;16.60;;;7.40;;
57303;SDS011;43150;50.986;18.208;2023-12-28T01:27:25;15.90;;;7.30;;
57303;SDS011;43150;50.986;18.208;2023-12-28T01:29:50;12.50;;;6.40;;
57303;SDS011;43150;50.986;18.208;2023-12-28T01:32:16;17.10;;;8.70;;
57303;SDS011;43150;50.986;18.208;2023-12-28T01:34:41;15.70;;;7.10;;
57303;SDS011;43150;50.986;18.208;2023-12-28T01:37:07;11.60;;;5.30;;
57303;SDS011;43150;50.986;18.208;2023-12-28T01:39:33;13.20;;;6.70;;
57303;SDS011;43150;50.986;18.208;2023-12-28T01:41:58;17.60;;;8.10;;
57303;SDS011;43150;50.986;18.208;2023-12-28T01:44:24;13.80;;;7.40;;
57303;SDS011;43150;50.986;18.208;2023-12-28T01:46:49;14.20;;;7.00;;
57303;SDS011;43150;50.986;18.208;2023-12-28T01:49:15;15.40;;;7.40;;
57303;SDS011;43150;50.986;18.208;2023-12-28T01:51:41;15.40;;;8.10;;
57303;SDS011;43150;50.986;18.208;2023-12-28T01:54:07;16.30;;;7.40;;
57303;SDS011;43150;50.986;18.208;2023-12-28T01:56:33;18.50;;;7.10;;
57303;SDS011;43150;50.986;18.208;2023-12-28T01:59:01;13.90;;;7.30;;
57303;SDS011;43150;50.986;18.208;2023-12-28T02:01:26;24.50;;;8.40;;
57303;SDS011;43150;50.986;18.208;2023-12-28T02:03:52;12.60;;;6.40;;
57303;SDS011;43150;50.986;18.208;2023-12-28T02:06:19;10.70;;;6.10;;
57303;SDS011;43150;50.986;18.208;2023-12-28T02:08:47;17.30;;;7.00;;
57303;SDS011;43150;50.986;18.208;2023-12-28T02:11:13;14.60;;;7.10;;
57303;SDS011;43150;50.986;18.208;2023-12-28T02:13:39;16.70;;;7.10;;
57303;SDS011;43150;50.986;18.208;2023-12-28T02:16:19;11.90;;;6.00;;
57303;SDS011;43150;50.986;18.208;2023-12-28T02:18:47;15.20;;;6.10;;
57303;SDS011;43150;50.986;18.208;2023-12-28T02:21:15;16.80;;;7.50;;
57303;SDS011;43150;50.986;18.208;2023-12-28T02:23:46;12.80;;;6.20;;
57303;SDS011;43150;50.986;18.208;2023-12-28T02:26:11;12.10;;;6.80;;
57303;SDS011;43150;50.986;18.208;2023-12-28T02:28:36;13.00;;;6.00;;
57303;SDS011;43150;50.986;18.208;2023-12-28T02:31:02;13.80;;;5.70;;
57303;SDS011;43150;50.986;18.208;2023-12-28T02:35:59;10.50;;;6.20;;
57303;SDS011;43150;50.986;18.208;2023-12-28T02:38:30;16.40;;;6.80;;
57303;SDS011;43150;50.986;18.208;2023-12-28T02:40:57;11.50;;;5.90;;
57303;SDS011;43150;50.986;18.208;2023-12-28T02:43:23;10.90;;;5.80;;
57303;SDS011;43150;50.986;18.208;2023-12-28T02:45:49;10.30;;;5.60;;
57303;SDS011;43150;50.986;18.208;2023-12-28T02:48:14;11.60;;;5.40;;
57303;SDS011;43150;50.986;18.208;2023-12-28T02:50:40;11.10;;;5.30;;
57303;SDS011;43150;50.986;18.208;2023-12-28T02:53:05;11.40;;;5.00;;
57303;SDS011;43150;50.986;18.208;2023-12-28T02:55:31;12.50;;;5.60;;
57303;SDS011;43150;50.986;18.208;2023-12-28T02:57:57;11.60;;;5.70;;
57303;SDS011;43150;50.986;18.208;2023-12-28T03:00:24;13.40;;;6.40;;
57303;SDS011;43150;50.986;18.208;2023-12-28T03:02:50;9.30;;;4.40;;
57303;SDS011;43150;50.986;18.208;2023-12-28T03:05:15;12.10;;;4.80;;
57303;SDS011;43150;50.986;18.208;2023-12-28T03:07:41;9.80;;;4.60;;
57303;SDS011;43150;50.986;18.208;2023-12-28T03:10:07;11.40;;;5.80;;
57303;SDS011;43150;50.986;18.208;2023-12-28T03:12:33;11.50;;;4.80;;
57303;SDS011;43150;50.986;18.208;2023-12-28T03:14:58;10.00;;;4.80;;
57303;SDS011;43150;50.986;18.208;2023-12-28T03:17:24;11.40;;;5.20;;
57303;SDS011;43150;50.986;18.208;2023-12-28T03:19:50;12.50;;;5.00;;
57303;SDS011;43150;50.986;18.208;2023-12-28T03:22:15;9.30;;;5.30;;
57303;SDS011;43150;50.986;18.208;2023-12-28T03:24:42;11.20;;;5.00;;
57303;SDS011;43150;50.986;18.208;2023-12-28T03:27:08;10.70;;;4.80;;
57303;SDS011;43150;50.986;18.208;2023-12-28T03:29:33;8.10;;;4.90;;
57303;SDS011;43150;50.986;18.208;2023-12-28T03:32:00;8.70;;;5.10;;
57303;SDS011;43150;50.986;18.208;2023-12-28T03:34:26;12.90;;;5.70;;
57303;SDS011;43150;50.986;18.208;2023-12-28T03:36:52;8.80;;;5.30;;
57303;SDS011;43150;50.986;18.208;2023-12-28T03:39:18;8.90;;;4.50;;
57303;SDS011;43150;50.986;18.208;2023-12-28T03:41:44;9.00;;;4.40;;
57303;SDS011;43150;50.986;18.208;2023-12-28T03:44:10;11.00;;;4.70;;
57303;SDS011;43150;50.986;18.208;2023-12-28T03:46:35;13.70;;;5.90;;
57303;SDS011;43150;50.986;18.208;2023-12-28T03:49:00;10.40;;;6.40;;
57303;SDS011;43150;50.986;18.208;2023-12-28T03:51:26;10.10;;;5.30;;
57303;SDS011;43150;50.986;18.208;2023-12-28T03:53:52;8.70;;;5.70;;
57303;SDS011;43150;50.986;18.208;2023-12-28T03:56:26;9.30;;;5.00;;
57303;SDS011;43150;50.986;18.208;2023-12-28T03:58:54;10.20;;;5.20;;
57303;SDS011;43150;50.986;18.208;2023-12-28T04:01:20;12.00;;;4.80;;
57303;SDS011;43150;50.986;18.208;2023-12-28T04:03:46;8.30;;;5.40;;
57303;SDS011;43150;50.986;18.208;2023-12-28T04:06:12;9.90;;;4.10;;
57303;SDS011;43150;50.986;18.208;2023-12-28T04:08:39;10.10;;;5.00;;
57303;SDS011;43150;50.986;18.208;2023-12-28T04:11:04;9.90;;;5.70;;
57303;SDS011;43150;50.986;18.208;2023-12-28T04:13:30;11.80;;;5.80;;
57303;SDS011;43150;50.986;18.208;2023-12-28T04:15:55;10.70;;;5.10;;
57303;SDS011;43150;50.986;18.208;2023-12-28T04:18:21;10.10;;;5.70;;
57303;SDS011;43150;50.986;18.208;2023-12-28T04:20:47;10.50;;;4.50;;
57303;SDS011;43150;50.986;18.208;2023-12-28T04:23:14;14.20;;;5.70;;
57303;SDS011;43150;50.986;18.208;2023-12-28T04:25:39;12.60;;;5.20;;
57303;SDS011;43150;50.986;18.208;2023-12-28T04:28:05;15.30;;;6.50;;
57303;SDS011;43150;50.986;18.208;2023-12-28T04:30:31;15.00;;;6.10;;
57303;SDS011;43150;50.986;18.208;2023-12-28T04:32:57;11.80;;;5.60;;
57303;SDS011;43150;50.986;18.208;2023-12-28T04:35:22;10.80;;;5.80;;
57303;SDS011;43150;50.986;18.208;2023-12-28T04:37:47;10.60;;;5.60;;
57303;SDS011;43150;50.986;18.208;2023-12-28T04:40:13;11.00;;;5.10;;
57303;SDS011;43150;50.986;18.208;2023-12-28T04:42:40;8.80;;;5.80;;
57303;SDS011;43150;50.986;18.208;2023-12-28T04:45:06;10.40;;;4.50;;
57303;SDS011;43150;50.986;18.208;2023-12-28T04:47:32;11.80;;;5.20;;
57303;SDS011;43150;50.986;18.208;2023-12-28T04:49:57;14.20;;;6.30;;
57303;SDS011;43150;50.986;18.208;2023-12-28T04:52:23;7.70;;;4.40;;
57303;SDS011;43150;50.986;18.208;2023-12-28T04:54:48;11.70;;;5.10;;
57303;SDS011;43150;50.986;18.208;2023-12-28T04:57:13;10.80;;;5.50;;
57303;SDS011;43150;50.986;18.208;2023-12-28T04:59:39;8.90;;;5.60;;
57303;SDS011;43150;50.986;18.208;2023-12-28T05:02:05;13.40;;;5.50;;
57303;SDS011;43150;50.986;18.208;2023-12-28T05:04:30;9.70;;;4.90;;
57303;SDS011;43150;50.986;18.208;2023-12-28T05:06:56;11.00;;;5.00;;
57303;SDS011;43150;50.986;18.208;2023-12-28T05:09:21;7.50;;;4.90;;
57303;SDS011;43150;50.986;18.208;2023-12-28T05:11:49;10.90;;;5.70;;
57303;SDS011;43150;50.986;18.208;2023-12-28T05:14:14;11.00;;;5.70;;
57303;SDS011;43150;50.986;18.208;2023-12-28T05:16:39;8.50;;;4.80;;
57303;SDS011;43150;50.986;18.208;2023-12-28T05:19:05;10.90;;;4.80;;
57303;SDS011;43150;50.986;18.208;2023-12-28T05:21:30;9.00;;;5.50;;
57303;SDS011;43150;50.986;18.208;2023-12-28T05:23:56;9.60;;;5.20;;
57303;SDS011;43150;50.986;18.208;2023-12-28T05:26:21;9.40;;;5.20;;
57303;SDS011;43150;50.986;18.208;2023-12-28T05:28:48;9.50;;;5.10;;
57303;SDS011;43150;50.986;18.208;2023-12-28T05:31:13;11.00;;;5.40;;
57303;SDS011;43150;50.986;18.208;2023-12-28T05:33:39;10.40;;;5.40;;
57303;SDS011;43150;50.986;18.208;2023-12-28T05:36:05;9.60;;;5.40;;
57303;SDS011;43150;50.986;18.208;2023-12-28T05:38:31;8.60;;;4.20;;
57303;SDS011;43150;50.986;18.208;2023-12-28T05:40:56;11.20;;;5.60;;
57303;SDS011;43150;50.986;18.208;2023-12-28T05:43:21;11.00;;;5.40;;
57303;SDS011;43150;50.986;18.208;2023-12-28T05:45:47;8.70;;;4.70;;
57303;SDS011;43150;50.986;18.208;2023-12-28T05:48:12;10.10;;;5.00;;
57303;SDS011;43150;50.986;18.208;2023-12-28T05:50:38;8.40;;;5.40;;
57303;SDS011;43150;50.986;18.208;2023-12-28T05:53:03;8.30;;;5.30;;
57303;SDS011;43150;50.986;18.208;2023-12-28T05:55:29;9.90;;;4.30;;
57303;SDS011;43150;50.986;18.208;2023-12-28T05:57:54;10.10;;;5.00;;
57303;SDS011;43150;50.986;18.208;2023-12-28T06:00:19;14.00;;;7.00;;
57303;SDS011;43150;50.986;18.208;2023-12-28T06:02:45;14.00;;;5.80;;
57303;SDS011;43150;50.986;18.208;2023-12-28T06:05:12;11.70;;;6.00;;
57303;SDS011;43150;50.986;18.208;2023-12-28T06:07:37;11.30;;;6.10;;
57303;SDS011;43150;50.986;18.208;2023-12-28T06:10:03;10.80;;;4.90;;
57303;SDS011;43150;50.986;18.208;2023-12-28T06:12:29;7.10;;;4.50;;
57303;SDS011;43150;50.986;18.208;2023-12-28T06:14:55;12.40;;;4.60;;
57303;SDS011;43150;50.986;18.208;2023-12-28T06:17:20;11.50;;;6.70;;
57303;SDS011;43150;50.986;18.208;2023-12-28T06:19:48;10.60;;;5.70;;
57303;SDS011;43150;50.986;18.208;2023-12-28T06:22:15;10.10;;;5.60;;
57303;SDS011;43150;50.986;18.208;2023-12-28T06:24:40;12.10;;;5.20;;
57303;SDS011;43150;50.986;18.208;2023-12-28T06:27:06;8.90;;;4.90;;
57303;SDS011;43150;50.986;18.208;2023-12-28T06:29:31;12.40;;;7.10;;
57303;SDS011;43150;50.986;18.208;2023-12-28T06:31:57;8.80;;;5.30;;
57303;SDS011;43150;50.986;18.208;2023-12-28T06:34:22;8.50;;;5.40;;
57303;SDS011;43150;50.986;18.208;2023-12-28T06:36:48;11.40;;;5.80;;
57303;SDS011;43150;50.986;18.208;2023-12-28T06:39:13;13.20;;;5.90;;
57303;SDS011;43150;50.986;18.208;2023-12-28T06:41:39;9.90;;;5.20;;
57303;SDS011;43150;50.986;18.208;2023-12-28T06:44:04;9.40;;;5.10;;
57303;SDS011;43150;50.986;18.208;2023-12-28T06:46:30;8.50;;;4.50;;
57303;SDS011;43150;50.986;18.208;2023-12-28T06:48:55;9.80;;;5.50;;
57303;SDS011;43150;50.986;18.208;2023-12-28T06:51:23;13.00;;;8.10;;
57303;SDS011;43150;50.986;18.208;2023-12-28T06:53:48;21.20;;;11.00;;
57303;SDS011;43150;50.986;18.208;2023-12-28T06:56:14;23.10;;;12.70;;
57303;SDS011;43150;50.986;18.208;2023-12-28T06:58:40;18.10;;;9.80;;
57303;SDS011;43150;50.986;18.208;2023-12-28T07:01:05;18.70;;;11.10;;
57303;SDS011;43150;50.986;18.208;2023-12-28T07:03:31;13.70;;;7.20;;
57303;SDS011;43150;50.986;18.208;2023-12-28T07:06:08;11.00;;;6.30;;
57303;SDS011;43150;50.986;18.208;2023-12-28T07:08:34;11.50;;;7.00;;
57303;SDS011;43150;50.986;18.208;2023-12-28T07:11:01;15.00;;;7.40;;
57303;SDS011;43150;50.986;18.208;2023-12-28T07:13:27;12.10;;;6.10;;
57303;SDS011;43150;50.986;18.208;2023-12-28T07:15:53;9.50;;;4.90;;
57303;SDS011;43150;50.986;18.208;2023-12-28T07:18:18;11.40;;;6.00;;
57303;SDS011;43150;50.986;18.208;2023-12-28T07:20:44;18.90;;;9.70;;
57303;SDS011;43150;50.986;18.208;2023-12-28T07:23:09;23.90;;;14.20;;
57303;SDS011;43150;50.986;18.208;2023-12-28T07:25:35;19.60;;;12.30;;
57303;SDS011;43150;50.986;18.208;2023-12-28T07:28:01;18.10;;;11.90;;
57303;SDS011;43150;50.986;18.208;2023-12-28T07:30:27;9.80;;;7.30;;
57303;SDS011;43150;50.986;18.208;2023-12-28T07:33:00;12.60;;;6.80;;
57303;SDS011;43150;50.986;18.208;2023-12-28T07:35:26;9.10;;;6.10;;
57303;SDS011;43150;50.986;18.208;2023-12-28T07:37:51;12.80;;;9.20;;
57303;SDS011;43150;50.986;18.208;2023-12-28T07:40:17;13.00;;;9.90;;
57303;SDS011;43150;50.986;18.208;2023-12-28T07:42:42;19.40;;;13.20;;
57303;SDS011;43150;50.986;18.208;2023-12-28T07:45:08;19.40;;;13.70;;
57303;SDS011;43150;50.986;18.208;2023-12-28T07:47:33;19.20;;;13.00;;
57303;SDS011;43150;50.986;18.208;2023-12-28T07:49:59;34.60;;;20.50;;
57303;SDS011;43150;50.986;18.208;2023-12-28T07:52:25;35.00;;;20.80;;
57303;SDS011;43150;50.986;18.208;2023-12-28T07:54:51;23.60;;;14.70;;
57303;SDS011;43150;50.986;18.208;2023-12-28T07:57:17;30.60;;;18.90;;
57303;SDS011;43150;50.986;18.208;2023-12-28T07:59:43;23.80;;;15.20;;
57303;SDS011;43150;50.986;18.208;2023-12-28T08:02:09;19.60;;;14.00;;
57303;SDS011;43150;50.986;18.208;2023-12-28T08:04:34;14.00;;;10.70;;
57303;SDS011;43150;50.986;18.208;2023-12-28T08:07:01;16.40;;;12.00;;
57303;SDS011;43150;50.986;18.208;2023-12-28T08:09:26;10.90;;;8.50;;
57303;SDS011;43150;50.986;18.208;2023-12-28T08:11:52;11.40;;;9.30;;
57303;SDS011;43150;50.986;18.208;2023-12-28T08:14:17;9.60;;;6.90;;
57303;SDS011;43150;50.986;18.208;2023-12-28T08:16:43;9.90;;;7.40;;
57303;SDS011;43150;50.986;18.208;2023-12-28T08:19:08;9.60;;;7.10;;
57303;SDS011;43150;50.986;18.208;2023-12-28T08:21:34;9.30;;;7.50;;
57303;SDS011;43150;50.986;18.208;2023-12-28T08:23:59;10.00;;;8.10;;
57303;SDS011;43150;50.986;18.208;2023-12-28T08:26:25;9.40;;;7.60;;
57303;SDS011;43150;50.986;18.208;2023-12-28T08:28:50;9.60;;;7.60;;
57303;SDS011;43150;50.986;18.208;2023-12-28T08:31:16;9.20;;;7.80;;
57303;SDS011;43150;50.986;18.208;2023-12-28T08:33:41;9.60;;;7.70;;
57303;SDS011;43150;50.986;18.208;2023-12-28T08:36:07;11.00;;;8.50;;
57303;SDS011;43150;50.986;18.208;2023-12-28T08:38:33;11.30;;;9.40;;
57303;SDS011;43150;50.986;18.208;2023-12-28T08:40:58;11.30;;;8.90;;
57303;SDS011;43150;50.986;18.208;2023-12-28T08:43:25;10.50;;;8.70;;
57303;SDS011;43150;50.986;18.208;2023-12-28T08:45:50;11.80;;;8.40;;
57303;SDS011;43150;50.986;18.208;2023-12-28T08:48:16;12.10;;;8.80;;
57303;SDS011;43150;50.986;18.208;2023-12-28T08:50:41;14.00;;;10.40;;
57303;SDS011;43150;50.986;18.208;2023-12-28T08:53:06;11.50;;;9.80;;
57303;SDS011;43150;50.986;18.208;2023-12-28T08:55:32;15.50;;;11.00;;
57303;SDS011;43150;50.986;18.208;2023-12-28T08:57:58;15.30;;;11.20;;
57303;SDS011;43150;50.986;18.208;2023-12-28T09:00:25;18.90;;;12.00;;
57303;SDS011;43150;50.986;18.208;2023-12-28T09:02:51;15.80;;;9.50;;
57303;SDS011;43150;50.986;18.208;2023-12-28T09:05:17;11.00;;;7.50;;
57303;SDS011;43150;50.986;18.208;2023-12-28T09:07:43;9.60;;;7.00;;
57303;SDS011;43150;50.986;18.208;2023-12-28T09:10:09;9.70;;;6.90;;
57303;SDS011;43150;50.986;18.208;2023-12-28T09:12:35;9.40;;;6.50;;
57303;SDS011;43150;50.986;18.208;2023-12-28T09:15:03;11.40;;;6.70;;
57303;SDS011;43150;50.986;18.208;2023-12-28T09:17:28;7.70;;;6.30;;
57303;SDS011;43150;50.986;18.208;2023-12-28T09:19:54;10.40;;;7.30;;
57303;SDS011;43150;50.986;18.208;2023-12-28T09:22:19;9.70;;;7.10;;
57303;SDS011;43150;50.986;18.208;2023-12-28T09:24:45;7.80;;;4.30;;
57303;SDS011;43150;50.986;18.208;2023-12-28T09:27:10;6.90;;;3.80;;
57303;SDS011;43150;50.986;18.208;2023-12-28T09:29:35;8.90;;;4.30;;
57303;SDS011;43150;50.986;18.208;2023-12-28T09:32:01;9.50;;;4.20;;
57303;SDS011;43150;50.986;18.208;2023-12-28T09:34:26;12.90;;;8.10;;
57303;SDS011;43150;50.986;18.208;2023-12-28T09:36:52;6.90;;;3.30;;
57303;SDS011;43150;50.986;18.208;2023-12-28T09:39:17;6.80;;;3.60;;
57303;SDS011;43150;50.986;18.208;2023-12-28T09:41:43;13.40;;;7.60;;
57303;SDS011;43150;50.986;18.208;2023-12-28T09:44:10;11.00;;;4.20;;
57303;SDS011;43150;50.986;18.208;2023-12-28T09:46:36;7.70;;;4.10;;
57303;SDS011;43150;50.986;18.208;2023-12-28T09:49:05;7.40;;;3.50;;
57303;SDS011;43150;50.986;18.208;2023-12-28T09:51:30;8.70;;;4.10;;
57303;SDS011;43150;50.986;18.208;2023-12-28T09:53:56;11.10;;;5.20;;
57303;SDS011;43150;50.986;18.208;2023-12-28T09:56:22;14.20;;;8.80;;
57303;SDS011;43150;50.986;18.208;2023-12-28T09:58:48;10.60;;;6.20;;
57303;SDS011;43150;50.986;18.208;2023-12-28T10:01:16;15.70;;;8.60;;
57303;SDS011;43150;50.986;18.208;2023-12-28T10:03:42;14.70;;;7.80;;
57303;SDS011;43150;50.986;18.208;2023-12-28T10:06:07;10.50;;;5.70;;
57303;SDS011;43150;50.986;18.208;2023-12-28T10:08:33;11.60;;;6.10;;
57303;SDS011;43150;50.986;18.208;2023-12-28T10:10:58;15.10;;;7.50;;
57303;SDS011;43150;50.986;18.208;2023-12-28T10:13:25;16.70;;;14.10;;
57303;SDS011;43150;50.986;18.208;2023-12-28T10:15:51;17.40;;;14.50;;
57303;SDS011;43150;50.986;18.208;2023-12-28T10:18:17;14.30;;;7.50;;
57303;SDS011;43150;50.986;18.208;2023-12-28T10:20:47;13.50;;;7.20;;
57303;SDS011;43150;50.986;18.208;2023-12-28T10:23:13;12.90;;;5.80;;
57303;SDS011;43150;50.986;18.208;2023-12-28T10:25:39;11.60;;;6.40;;
57303;SDS011;43150;50.986;18.208;2023-12-28T10:28:04;16.20;;;8.30;;
57303;SDS011;43150;50.986;18.208;2023-12-28T10:30:31;14.10;;;7.80;;
57303;SDS011;43150;50.986;18.208;2023-12-28T10:32:57;13.50;;;6.30;;
57303;SDS011;43150;50.986;18.208;2023-12-28T10:35:22;21.90;;;10.80;;
57303;SDS011;43150;50.986;18.208;2023-12-28T10:37:48;22.90;;;11.40;;
57303;SDS011;43150;50.986;18.208;2023-12-28T10:40:18;18.90;;;14.80;;
57303;SDS011;43150;50.986;18.208;2023-12-28T10:45:13;12.80;;;5.60;;
57303;SDS011;43150;50.986;18.208;2023-12-28T10:47:42;10.60;;;5.60;;
57303;SDS011;43150;50.986;18.208;2023-12-28T10:50:08;12.00;;;7.90;;
57303;SDS011;43150;50.986;18.208;2023-12-28T10:52:36;11.80;;;6.50;;
57303;SDS011;43150;50.986;18.208;2023-12-28T10:57:39;13.20;;;7.20;;
57303;SDS011;43150;50.986;18.208;2023-12-28T11:00:20;12.80;;;6.60;;
57303;SDS011;43150;50.986;18.208;2023-12-28T11:02:48;13.80;;;6.30;;
57303;SDS011;43150;50.986;18.208;2023-12-28T11:05:17;9.30;;;5.60;;
57303;SDS011;43150;50.986;18.208;2023-12-28T11:07:43;13.40;;;6.10;;
57303;SDS011;43150;50.986;18.208;2023-12-28T11:10:09;11.50;;;7.30;;
57303;SDS011;43150;50.986;18.208;2023-12-28T11:12:35;8.30;;;5.00;;
57303;SDS011;43150;50.986;18.208;2023-12-28T11:15:01;8.50;;;5.20;;
57303;SDS011;43150;50.986;18.208;2023-12-28T11:17:28;10.40;;;4.80;;
57303;SDS011;43150;50.986;18.208;2023-12-28T11:19:58;6.90;;;3.60;;
57303;SDS011;43150;50.986;18.208;2023-12-28T11:22:25;5.80;;;3.00;;
57303;SDS011;43150;50.986;18.208;2023-12-28T11:24:53;10.50;;;4.40;;
57303;SDS011;43150;50.986;18.208;2023-12-28T11:27:19;6.10;;;3.70;;
57303;SDS011;43150;50.986;18.208;2023-12-28T11:29:45;8.20;;;4.40;;
57303;SDS011;43150;50.986;18.208;2023-12-28T11:32:15;12.00;;;8.50;;
57303;SDS011;43150;50.986;18.208;2023-12-28T11:34:42;7.50;;;4.50;;
57303;SDS011;43150;50.986;18.208;2023-12-28T11:37:08;6.70;;;4.10;;
57303;SDS011;43150;50.986;18.208;2023-12-28T11:39:37;14.30;;;7.10;;
57303;SDS011;43150;50.986;18.208;2023-12-28T11:42:07;12.20;;;6.30;;
57303;SDS011;43150;50.986;18.208;2023-12-28T11:44:37;21.30;;;9.50;;
57303;SDS011;43150;50.986;18.208;2023-12-28T11:47:14;24.80;;;16.20;;
57303;SDS011;43150;50.986;18.208;2023-12-28T11:49:39;19.10;;;8.20;;
57303;SDS011;43150;50.986;18.208;2023-12-28T11:52:06;17.70;;;7.40;;
57303;SDS011;43150;50.986;18.208;2023-12-28T11:54:31;18.70;;;7.70;;
57303;SDS011;43150;50.986;18.208;2023-12-28T11:56:57;22.50;;;14.40;;
57303;SDS011;43150;50.986;18.208;2023-12-28T11:59:23;27.50;;;15.90;;
57303;SDS011;43150;50.986;18.208;2023-12-28T12:01:52;18.90;;;8.80;;
57303;SDS011;43150;50.986;18.208;2023-12-28T12:04:21;18.90;;;7.40;;
57303;SDS011;43150;50.986;18.208;2023-12-28T12:06:47;16.90;;;6.70;;
57303;SDS011;43150;50.986;18.208;2023-12-28T12:09:13;17.50;;;7.70;;
57303;SDS011;43150;50.986;18.208;2023-12-28T12:11:39;17.20;;;7.10;;
57303;SDS011;43150;50.986;18.208;2023-12-28T12:14:08;20.70;;;7.80;;
57303;SDS011;43150;50.986;18.208;2023-12-28T12:16:34;18.00;;;7.60;;
57303;SDS011;43150;50.986;18.208;2023-12-28T12:19:00;16.50;;;7.60;;
57303;SDS011;43150;50.986;18.208;2023-12-28T12:21:25;12.40;;;5.80;;
57303;SDS011;43150;50.986;18.208;2023-12-28T12:23:52;11.10;;;5.90;;
57303;SDS011;43150;50.986;18.208;2023-12-28T12:26:19;21.70;;;8.30;;
57303;SDS011;43150;50.986;18.208;2023-12-28T12:28:44;21.50;;;8.50;;
57303;SDS011;43150;50.986;18.208;2023-12-28T12:31:11;19.10;;;12.50;;
57303;SDS011;43150;50.986;18.208;2023-12-28T12:33:36;15.20;;;7.00;;
57303;SDS011;43150;50.986;18.208;2023-12-28T12:36:05;22.80;;;10.30;;
57303;SDS011;43150;50.986;18.208;2023-12-28T12:38:31;24.90;;;9.50;;
57303;SDS011;43150;50.986;18.208;2023-12-28T12:40:58;24.30;;;11.40;;
57303;SDS011;43150;50.986;18.208;2023-12-28T12:43:25;33.70;;;20.10;;
57303;SDS011;43150;50.986;18.208;2023-12-28T12:45:52;22.70;;;11.30;;
57303;SDS011;43150;50.986;18.208;2023-12-28T12:48:18;28.50;;;17.80;;
57303;SDS011;43150;50.986;18.208;2023-12-28T12:50:43;28.40;;;11.80;;
57303;SDS011;43150;50.986;18.208;2023-12-28T12:53:09;20.00;;;14.10;;
57303;SDS011;43150;50.986;18.208;2023-12-28T12:55:36;14.50;;;6.80;;
57303;SDS011;43150;50.986;18.208;2023-12-28T12:58:02;13.40;;;6.90;;
57303;SDS011;43150;50.986;18.208;2023-12-28T13:00:27;17.50;;;6.40;;
57303;SDS011;43150;50.986;18.208;2023-12-28T13:02:53;21.70;;;14.00;;
57303;SDS011;43150;50.986;18.208;2023-12-28T13:05:20;22.10;;;12.90;;
57303;SDS011;43150;50.986;18.208;2023-12-28T13:07:46;13.80;;;6.80;;
57303;SDS011;43150;50.986;18.208;2023-12-28T13:10:11;12.10;;;6.10;;
57303;SDS011;43150;50.986;18.208;2023-12-28T13:12:38;15.20;;;7.30;;
57303;SDS011;43150;50.986;18.208;2023-12-28T13:15:03;16.30;;;7.50;;
57303;SDS011;43150;50.986;18.208;2023-12-28T13:17:29;14.80;;;6.90;;
57303;SDS011;43150;50.986;18.208;2023-12-28T13:19:54;22.60;;;14.60;;
57303;SDS011;43150;50.986;18.208;2023-12-28T13:22:20;17.10;;;6.80;;
57303;SDS011;43150;50.986;18.208;2023-12-28T13:24:45;21.40;;;8.90;;
57303;SDS011;43150;50.986;18.208;2023-12-28T13:27:11;17.90;;;7.50;;
57303;SDS011;43150;50.986;18.208;2023-12-28T13:29:36;17.60;;;8.20;;
57303;SDS011;43150;50.986;18.208;2023-12-28T13:32:02;20.80;;;9.90;;
57303;SDS011;43150;50.986;18.208;2023-12-28T13:34:29;23.70;;;10.70;;
57303;SDS011;43150;50.986;18.208;2023-12-28T13:36:54;21.00;;;9.20;;
57303;SDS011;43150;50.986;18.208;2023-12-28T13:39:20;15.60;;;8.20;;
57303;SDS011;43150;50.986;18.208;2023-12-28T13:41:46;24.10;;;15.80;;
57303;SDS011;43150;50.986;18.208;2023-12-28T13:44:11;19.00;;;7.90;;
57303;SDS011;43150;50.986;18.208;2023-12-28T13:46:38;10.80;;;4.50;;
57303;SDS011;43150;50.986;18.208;2023-12-28T13:49:04;12.60;;;6.50;;
57303;SDS011;43150;50.986;18.208;2023-12-28T13:51:31;8.90;;;4.70;;
57303;SDS011;43150;50.986;18.208;2023-12-28T13:53:57;14.40;;;7.20;;
57303;SDS011;43150;50.986;18.208;2023-12-28T13:56:22;6.50;;;4.00;;
57303;SDS011;43150;50.986;18.208;2023-12-28T13:58:48;9.30;;;5.10;;
57303;SDS011;43150;50.986;18.208;2023-12-28T14:01:13;13.70;;;6.30;;
57303;SDS011;43150;50.986;18.208;2023-12-28T14:03:39;9.40;;;5.20;;
57303;SDS011;43150;50.986;18.208;2023-12-28T14:06:04;9.20;;;4.90;;
57303;SDS011;43150;50.986;18.208;2023-12-28T14:08:30;7.90;;;3.50;;
57303;SDS011;43150;50.986;18.208;2023-12-28T14:10:55;8.30;;;5.40;;
57303;SDS011;43150;50.986;18.208;2023-12-28T14:13:21;11.50;;;5.60;;
57303;SDS011;43150;50.986;18.208;2023-12-28T14:15:47;14.30;;;6.30;;
57303;SDS011;43150;50.986;18.208;2023-12-28T14:18:13;10.40;;;5.50;;
57303;SDS011;43150;50.986;18.208;2023-12-28T14:20:38;11.00;;;5.50;;
57303;SDS011;43150;50.986;18.208;2023-12-28T14:23:04;11.70;;;6.00;;
57303;SDS011;43150;50.986;18.208;2023-12-28T14:25:30;9.60;;;5.00;;